x

Point Arguello, Ca (ptgc1) Weather Station

7:00pm - Sat 23rd Sep 2017 All times are PDT. -7 hours from GMT.

  • Wind
    20mph, 22mph gusts
  • Air Temp 60°f
  • Sea Pressure 1011.5mb
  • Point Arguello, Ca
  • Point Arguello, Ca

More Historic Weather Station data

Upgrade to MSW Pro to gain access to the past 30 days of data for over 8000 Wavebouys and Weather Stations around the globe.

Join

Comparision Forecast

View Surf forecast
   
Sat 09/23 7:00pm 20 22 mph 1011.5mb 60f
6:00pm 21 23 mph 1011.4mb 60f
5:00pm 20 23 mph 1011.6mb 60f
4:00pm 15 17 mph 1011.9mb 60f
3:00pm 10 13 mph 1012.5mb 60f
2:00pm 8 10 mph 1012.6mb 59f
1:00pm 11 14 mph 1012.8mb 59f
12:00pm 13 14 mph 1013mb 59f
11:00am 11 13 mph 1012.9mb 59f
10:00am 16 16 mph 1012.7mb 60f
9:00am 10 11 mph 1012.3mb 58f
8:00am 3 5 mph 1012.1mb 55f
7:00am 7 8 mph 1011.5mb 56f
6:00am 8 9 mph 1011.1mb 56f
5:00am 10 11 mph 1010.6mb 56f
4:00am 13 16 mph 1010.8mb 55f
3:00am 18 20 mph 1010.8mb 56f
2:00am 22 24 mph 1011.1mb 57f
1:00am 18 20 mph 1011.3mb 57f
12:00am 20 22 mph 1011.4mb 57f
Fri 09/22 11:00pm 16 18 mph 1011.5mb 58f
10:00pm 21 23 mph 1011.6mb 58f
9:00pm 20 23 mph 1011.7mb 58f
8:00pm 21 22 mph 1011.4mb 58f
7:00pm 18 20 mph 1011.3mb 59f
6:00pm 17 18 mph 1011.4mb 59f
5:00pm 14 15 mph 1011.4mb 59f
4:00pm 11 14 mph 1011.9mb 60f
3:00pm 14 15 mph 1012.4mb 58f
2:00pm 11 13 mph 1013mb 58f
1:00pm 8 11 mph 1013.7mb 58f
12:00pm 6 6 mph 1014mb 57f
11:00am 9 9 mph 1014mb 56f
10:00am 11 13 mph 1014mb 56f
9:00am 15 17 mph 1013.6mb 57f
8:00am 14 15 mph 1013.2mb 55f
7:00am 13 15 mph 1013mb 55f
6:00am 9 10 mph 1012.7mb 54f
5:00am 14 16 mph 1012.4mb 55f
4:00am 24 25 mph 1012.2mb 56f
3:00am 16 18 mph 1012.6mb 56f
2:00am 23 24 mph 1012.8mb 57f
1:00am 21 23 mph 1012.8mb 57f
12:00am 22 24 mph 1013mb 57f
Thu 09/21 11:00pm 25 28 mph 1012.9mb 58f
10:00pm 20 22 mph 1013.3mb 58f
9:00pm 16 18 mph 1013.6mb 58f
8:00pm 14 16 mph 1013.5mb 58f
7:00pm 17 18 mph 1012.9mb 59f
6:00pm 20 22 mph 1012.8mb 59f
5:00pm 23 25 mph 1012.4mb 59f
4:00pm 25 28 mph 1012.5mb 59f
3:00pm 24 26 mph 1012.6mb 59f
2:00pm 25 28 mph 1012.8mb 59f
1:00pm 25 28 mph 1013.4mb 59f
12:00pm 26 29 mph 1013.5mb 59f
11:00am 24 26 mph 1013.5mb 58f
10:00am 23 24 mph 1013.7mb 58f
9:00am 22 24 mph 1013.2mb 58f
8:00am 24 25 mph 1012.8mb 59f
7:00am 16 16 mph 1012.3mb 59f
6:00am 14 20 mph 1011.9mb 59f
5:00am 13 15 mph 1011.7mb 59f
4:00am 15 17 mph 1011.5mb 58f
3:00am 20 21 mph 1011.5mb 59f
2:00am 20 22 mph 1011.8mb 59f
1:00am 21 22 mph 1011.8mb 60f
12:00am 22 23 mph 1011.8mb 60f
Wed 09/20 11:00pm 24 26 mph 1011.9mb 60f
10:00pm 23 25 mph 1012.1mb 61f
9:00pm 24 25 mph 1012.5mb 60f
8:00pm 24 25 mph 1012.4mb 60f
7:00pm 24 25 mph 1012mb 60f
6:00pm 17 20 mph 1012.2mb 61f
5:00pm 18 21 mph 1012.3mb 61f
4:00pm 16 18 mph 1012.8mb 61f
3:00pm 15 16 mph 1013.2mb 61f
2:00pm 13 15 mph 1013.5mb 61f
1:00pm 9 11 mph 1014mb 61f
12:00pm 13 14 mph 1013.8mb 60f
11:00am 9 13 mph 1013.8mb 61f
10:00am 13 14 mph 1013.7mb 60f
9:00am 15 17 mph 1013mb 59f
8:00am 18 23 mph 1012.1mb 58f
7:00am 20 22 mph 1011.6mb 57f
6:00am 23 25 mph 1011.5mb 57f
5:00am 18 22 mph 1012.1mb 58f
4:00am 18 21 mph 1012.3mb 58f